Time;durP1;ratioP1;P1;durP2;ratioP2;P2;SDS_P1;SDS_P2;PMS_P1;PMS_P2;Temp;Humidity;BMP_temperature;BMP_pressure;BME280_temperature;BME280_humidity;BME280_pressure;Samples;Min_cycle;Max_cycle;Signal;HPM_P1;HPM_P2
2021/05/05 00:01:55;;;;;;;3.97;3.03;;;10.90;75.80;;;;;;4958806;28;20034;-73
2021/05/05 00:04:21;;;;;;;;;;;10.90;75.70;;;;;;4968838;28;20493;-74
2021/05/05 00:06:48;;;;;;;3.10;2.83;;;10.90;76.20;;;;;;4967028;28;19917;-73
2021/05/05 00:09:14;;;;;;;3.80;2.90;;;10.90;76.10;;;;;;4972432;28;20493;-74
2021/05/05 00:11:41;;;;;;;4.80;3.20;;;10.90;76.30;;;;;;4962857;28;20027;-73
2021/05/05 00:14:12;;;;;;;3.03;2.70;;;10.80;76.00;;;;;;4967729;28;20600;-74
2021/05/05 00:16:37;;;;;;;4.97;3.08;;;10.80;76.00;;;;;;4961679;28;20638;-74
2021/05/05 00:19:04;;;;;;;3.25;2.78;;;10.80;74.50;;;;;;4965019;28;20046;-73
2021/05/05 00:21:30;;;;;;;3.72;2.80;;;10.80;74.20;;;;;;4968965;28;20485;-74
2021/05/05 00:23:55;;;;;;;3.50;2.70;;;10.80;75.00;;;;;;4973802;28;20033;-74
2021/05/05 00:26:21;;;;;;;2.95;2.60;;;10.80;74.90;;;;;;4961093;28;20461;-73
2021/05/05 00:28:47;;;;;;;2.70;2.47;;;10.80;74.70;;;;;;4966770;28;20027;-73
2021/05/05 00:31:14;;;;;;;5.43;3.10;;;10.80;74.80;;;;;;4971523;28;20039;-74
2021/05/05 00:33:40;;;;;;;3.65;2.55;;;10.70;74.90;;;;;;4958631;28;20038;-73
2021/05/05 00:36:06;;;;;;;2.35;2.15;;;10.70;75.30;;;;;;4978469;28;20026;-73
2021/05/05 00:38:32;;;;;;;3.88;2.58;;;10.70;75.60;;;;;;4967954;28;20393;-73
2021/05/05 00:40:57;;;;;;;3.08;2.63;;;10.60;75.60;;;;;;4963404;28;20027;-73
2021/05/05 00:43:23;;;;;;;2.90;2.45;;;10.60;75.90;;;;;;4969493;28;20041;-73
2021/05/05 00:45:48;;;;;;;3.90;2.20;;;10.60;76.30;;;;;;4978409;28;20297;-73
2021/05/05 00:48:14;;;;;;;3.53;2.50;;;10.60;76.30;;;;;;4970797;28;20038;-73
2021/05/05 00:50:40;;;;;;;3.95;2.88;;;10.60;76.70;;;;;;4969854;28;20039;-73
2021/05/05 00:53:06;;;;;;;2.58;2.38;;;10.60;76.70;;;;;;4969508;28;20474;-73
2021/05/05 00:55:32;;;;;;;2.70;2.40;;;10.60;76.90;;;;;;4976976;28;20027;-73
2021/05/05 00:57:57;;;;;;;3.45;2.42;;;10.60;77.00;;;;;;4963709;28;20720;-73
2021/05/05 01:00:24;;;;;;;4.25;2.63;;;10.60;77.70;;;;;;4966068;28;20038;-74
2021/05/05 01:02:50;;;;;;;2.78;2.40;;;10.50;77.50;;;;;;4973508;28;20104;-74
2021/05/05 01:05:17;;;;;;;3.20;2.28;;;10.50;78.40;;;;;;4974223;28;20062;-73
2021/05/05 01:07:43;;;;;;;2.88;2.67;;;10.50;77.30;;;;;;4960094;28;20034;-73
2021/05/05 01:10:11;;;;;;;2.30;2.10;;;10.50;78.20;;;;;;4972532;28;20027;-74
2021/05/05 01:12:37;;;;;;;3.83;2.58;;;10.50;78.40;;;;;;4963220;28;20030;-73
2021/05/05 01:15:05;;;;;;;3.47;2.50;;;10.40;78.60;;;;;;4963512;28;20027;-73
2021/05/05 01:17:32;;;;;;;2.40;2.20;;;10.40;79.20;;;;;;4970507;28;20186;-73
2021/05/05 01:19:59;;;;;;;2.93;2.50;;;10.40;79.70;;;;;;4965524;28;20101;-73
2021/05/05 01:22:24;;;;;;;3.53;2.63;;;10.30;79.60;;;;;;4969346;28;20031;-74
2021/05/05 01:24:50;;;;;;;3.05;2.42;;;10.30;80.00;;;;;;4965116;28;20035;-74
2021/05/05 01:27:16;;;;;;;3.00;2.67;;;10.20;80.00;;;;;;4963111;28;20447;-73
2021/05/05 01:29:49;;;;;;;4.32;2.63;;;10.20;80.50;;;;;;4967943;28;20042;-73
2021/05/05 01:32:16;;;;;;;3.35;2.80;;;10.20;80.70;;;;;;4954547;28;20086;-73
2021/05/05 01:34:43;;;;;;;3.08;2.40;;;10.10;80.80;;;;;;4975874;28;20046;-74
2021/05/05 01:37:10;;;;;;;3.38;2.45;;;10.10;81.30;;;;;;4972909;28;20023;-74
2021/05/05 01:39:37;;;;;;;4.30;2.55;;;10.10;81.20;;;;;;4976186;28;20046;-74
2021/05/05 01:42:03;;;;;;;4.57;2.60;;;10.10;81.90;;;;;;4965287;28;20038;-73
2021/05/05 01:44:31;;;;;;;4.07;2.80;;;10.10;81.80;;;;;;4964501;28;20023;-74
2021/05/05 01:46:57;;;;;;;3.38;3.08;;;10.10;82.20;;;;;;4988100;28;20096;-74
2021/05/05 01:49:24;;;;;;;4.43;2.95;;;10.10;82.00;;;;;;4967849;28;20492;-73
2021/05/05 01:51:53;;;;;;;2.97;2.53;;;10.10;82.40;;;;;;4966122;28;20088;-74
2021/05/05 01:54:19;;;;;;;3.58;2.70;;;10.10;82.50;;;;;;4966776;28;20340;-73
2021/05/05 01:56:44;;;;;;;2.95;2.25;;;10.10;82.70;;;;;;4969135;28;20054;-74
2021/05/05 01:59:10;;;;;;;3.50;2.20;;;10.10;82.80;;;;;;4971065;28;20497;-73
2021/05/05 02:01:36;;;;;;;3.30;2.88;;;10.10;82.80;;;;;;4969012;28;20035;-73
2021/05/05 02:04:02;;;;;;;3.10;2.60;;;10.10;83.00;;;;;;4964532;28;20054;-73
2021/05/05 02:06:29;;;;;;;5.13;2.88;;;10.10;83.30;;;;;;4967626;28;20031;-74
2021/05/05 02:08:56;;;;;;;3.72;2.90;;;10.00;83.50;;;;;;4965862;28;20026;-73
2021/05/05 02:11:22;;;;;;;3.67;2.60;;;10.10;83.80;;;;;;4967308;28;20033;-73
2021/05/05 02:13:48;;;;;;;3.85;2.80;;;10.10;83.90;;;;;;4971647;28;20486;-74
2021/05/05 02:16:15;;;;;;;3.53;2.42;;;10.00;83.50;;;;;;4967424;28;20043;-73
2021/05/05 02:18:40;;;;;;;2.67;2.45;;;10.00;84.10;;;;;;4965441;28;20482;-73
2021/05/05 02:21:06;;;;;;;3.05;2.67;;;10.00;84.30;;;;;;4961942;28;20042;-73
2021/05/05 02:23:32;;;;;;;3.88;2.90;;;9.90;85.00;;;;;;4963257;28;20026;-74
2021/05/05 02:25:59;;;;;;;3.13;1.90;;;9.90;85.50;;;;;;4972540;28;20447;-73
2021/05/05 02:28:25;;;;;;;1.17;1.17;;;9.80;84.60;;;;;;4962363;28;20029;-73
2021/05/05 02:30:51;;;;;;;1.73;1.05;;;9.40;83.20;;;;;;4964095;28;20093;-74
2021/05/05 02:33:16;;;;;;;1.52;1.40;;;9.30;83.50;;;;;;4966190;28;20027;-74
2021/05/05 02:35:42;;;;;;;0.77;0.77;;;9.20;83.80;;;;;;4964868;28;20022;-74
2021/05/05 02:38:08;;;;;;;1.30;1.20;;;8.90;85.50;;;;;;4965739;28;20022;-73
2021/05/05 02:40:34;;;;;;;1.05;0.95;;;8.90;84.80;;;;;;4964932;28;20027;-74
2021/05/05 02:43:00;;;;;;;1.00;0.73;;;8.80;83.60;;;;;;4968656;28;20117;-73
2021/05/05 02:45:26;;;;;;;0.70;0.70;;;8.80;83.40;;;;;;4982743;28;20446;-74
2021/05/05 02:47:51;;;;;;;0.47;0.47;;;8.60;82.60;;;;;;4968320;28;20022;-74
2021/05/05 02:50:17;;;;;;;0.70;0.70;;;8.60;83.60;;;;;;4965696;28;20497;-74
2021/05/05 02:52:43;;;;;;;0.60;0.43;;;8.40;82.60;;;;;;4968242;28;20126;-74
2021/05/05 02:55:10;;;;;;;0.70;0.70;;;8.40;83.90;;;;;;4964028;28;20026;-74
2021/05/05 02:57:36;;;;;;;0.50;0.50;;;8.30;84.70;;;;;;4966025;28;20031;-74
2021/05/05 03:00:08;;;;;;;0.60;0.60;;;8.30;84.10;;;;;;4966022;28;20030;-73
2021/05/05 03:02:33;;;;;;;0.60;0.60;;;8.40;84.10;;;;;;4972826;28;20066;-74
2021/05/05 03:04:59;;;;;;;0.40;0.40;;;8.40;84.10;;;;;;4967551;28;20030;-73
2021/05/05 03:07:25;;;;;;;0.80;0.80;;;8.40;84.00;;;;;;4974658;28;20051;-73
2021/05/05 03:09:51;;;;;;;1.25;0.50;;;8.30;84.00;;;;;;4970836;28;20031;-74
2021/05/05 03:12:17;;;;;;;1.05;0.60;;;8.40;83.60;;;;;;4972768;28;20062;-74
2021/05/05 03:14:42;;;;;;;2.25;0.60;;;8.20;83.20;;;;;;4967107;28;20392;-74
2021/05/05 03:17:08;;;;;;;0.60;0.60;;;8.30;83.50;;;;;;4976181;28;20114;-73
2021/05/05 03:19:33;;;;;;;2.45;0.80;;;8.20;83.30;;;;;;4968030;28;20023;-74
2021/05/05 03:22:00;;;;;;;0.65;0.65;;;8.20;83.20;;;;;;4965405;28;20376;-74
2021/05/05 03:24:26;;;;;;;0.98;0.68;;;8.10;82.60;;;;;;4966868;28;20027;-74
2021/05/05 03:26:52;;;;;;;0.50;0.50;;;8.10;82.80;;;;;;4964528;28;20081;-74
2021/05/05 03:29:18;;;;;;;2.15;0.70;;;8.00;83.00;;;;;;4965721;28;20050;-74
2021/05/05 03:31:44;;;;;;;1.67;0.70;;;8.10;83.10;;;;;;4965803;28;20406;-74
2021/05/05 03:34:10;;;;;;;0.65;0.50;;;8.00;82.30;;;;;;4960924;28;20046;-73
2021/05/05 03:36:36;;;;;;;4.32;0.80;;;8.00;81.70;;;;;;4961426;28;20019;-74
2021/05/05 03:39:05;;;;;;;0.40;0.40;;;7.90;82.20;;;;;;4969623;28;20054;-74
2021/05/05 03:41:30;;;;;;;3.13;1.00;;;7.80;83.10;;;;;;4968254;28;20018;-74
2021/05/05 03:43:56;;;;;;;2.22;0.98;;;7.80;82.80;;;;;;4963609;28;20430;-74
2021/05/05 03:46:23;;;;;;;1.50;0.70;;;7.70;82.30;;;;;;4973649;28;20029;-74
2021/05/05 03:48:48;;;;;;;1.65;0.68;;;7.70;83.20;;;;;;4965649;28;20061;-74
2021/05/05 03:51:14;;;;;;;0.50;0.50;;;7.60;83.10;;;;;;4973861;28;20438;-74
2021/05/05 03:53:39;;;;;;;0.73;0.73;;;7.60;83.60;;;;;;4968104;28;20069;-74
2021/05/05 03:56:05;;;;;;;2.10;0.80;;;7.70;83.10;;;;;;4961750;28;20065;-74
2021/05/05 03:58:31;;;;;;;0.95;0.90;;;7.70;82.70;;;;;;4964425;28;20026;-74
2021/05/05 04:00:56;;;;;;;0.65;0.65;;;7.60;83.50;;;;;;4966322;28;20049;-74
2021/05/05 04:03:22;;;;;;;1.52;0.70;;;7.70;82.90;;;;;;4970859;28;20635;-74
2021/05/05 04:05:48;;;;;;;1.35;0.73;;;7.60;83.00;;;;;;4959648;28;20027;-74
2021/05/05 04:08:13;;;;;;;1.15;0.50;;;7.60;83.90;;;;;;4974608;28;20133;-74
2021/05/05 04:10:39;;;;;;;1.65;0.88;;;7.50;83.60;;;;;;4967599;28;20033;-74
2021/05/05 04:13:05;;;;;;;1.85;1.13;;;7.40;83.60;;;;;;4981616;28;20027;-74
2021/05/05 04:15:31;;;;;;;0.52;0.52;;;7.40;84.10;;;;;;4958728;28;20462;-74
2021/05/05 04:17:56;;;;;;;1.38;0.68;;;7.40;84.40;;;;;;4966073;28;20033;-74
2021/05/05 04:20:22;;;;;;;1.08;0.88;;;7.30;84.10;;;;;;4977557;28;20027;-73
2021/05/05 04:22:48;;;;;;;0.70;0.70;;;7.40;84.50;;;;;;4969763;28;20034;-73
2021/05/05 04:25:16;;;;;;;1.48;0.70;;;7.40;85.10;;;;;;4973976;28;20038;-74
2021/05/05 04:27:42;;;;;;;6.05;1.30;;;7.40;84.10;;;;;;4964882;28;20050;-74
2021/05/05 04:30:11;;;;;;;1.40;0.70;;;7.50;84.50;;;;;;4978303;28;20526;-73
2021/05/05 04:32:37;;;;;;;0.70;0.70;;;7.40;84.70;;;;;;4963254;28;20425;-74
2021/05/05 04:35:03;;;;;;;1.08;0.77;;;7.20;83.30;;;;;;4971120;28;20054;-73
2021/05/05 04:37:28;;;;;;;5.30;1.00;;;7.20;84.00;;;;;;4968871;28;20030;-74
2021/05/05 04:39:54;;;;;;;1.33;0.60;;;7.20;84.30;;;;;;4973818;28;20026;-74
2021/05/05 04:42:20;;;;;;;1.50;0.80;;;7.20;83.50;;;;;;4967387;28;20039;-74
2021/05/05 04:44:45;;;;;;;1.05;0.80;;;7.20;83.50;;;;;;4961030;28;20045;-74
2021/05/05 04:47:11;;;;;;;1.35;1.10;;;7.20;83.60;;;;;;4966539;28;20043;-74
2021/05/05 04:49:36;;;;;;;1.10;0.70;;;7.10;83.50;;;;;;4970450;28;20035;-73
2021/05/05 04:52:02;;;;;;;0.60;0.60;;;7.10;83.70;;;;;;4961616;28;20026;-73
2021/05/05 04:54:28;;;;;;;0.73;0.70;;;7.10;83.60;;;;;;4962884;28;20039;-73
2021/05/05 04:56:54;;;;;;;0.98;0.90;;;7.20;83.70;;;;;;4962182;28;20065;-73
2021/05/05 04:59:19;;;;;;;0.73;0.60;;;7.20;83.70;;;;;;4971856;28;20026;-73
2021/05/05 05:01:45;;;;;;;0.70;0.70;;;7.30;83.30;;;;;;4977275;28;20039;-73
2021/05/05 05:04:11;;;;;;;2.80;0.90;;;7.30;84.70;;;;;;4971146;28;20653;-73
2021/05/05 05:06:36;;;;;;;1.90;0.85;;;7.40;83.70;;;;;;4968951;28;20034;-73
2021/05/05 05:09:03;;;;;;;0.70;0.70;;;7.40;83.50;;;;;;4964228;28;20050;-74
2021/05/05 05:11:29;;;;;;;1.58;0.80;;;7.40;83.60;;;;;;4969272;28;20050;-74
2021/05/05 05:13:54;;;;;;;1.38;0.95;;;7.40;83.50;;;;;;4969777;28;20022;-74
2021/05/05 05:16:20;;;;;;;0.70;0.70;;;7.40;84.10;;;;;;4974905;28;20763;-74
2021/05/05 05:18:45;;;;;;;0.60;0.60;;;7.40;83.90;;;;;;4968351;28;20052;-75
2021/05/05 05:21:11;;;;;;;0.68;0.68;;;7.50;83.80;;;;;;4971378;28;20154;-72
2021/05/05 05:23:37;;;;;;;0.80;0.75;;;7.40;83.80;;;;;;4963028;28;20027;-74
2021/05/05 05:26:02;;;;;;;0.95;0.95;;;7.40;84.10;;;;;;4977057;28;20084;-73
2021/05/05 05:28:28;;;;;;;2.63;0.90;;;7.50;83.80;;;;;;4964392;28;20026;-73
2021/05/05 05:30:54;;;;;;;1.08;0.70;;;7.40;83.40;;;;;;4978248;28;20038;-74
2021/05/05 05:33:20;;;;;;;1.58;0.90;;;7.50;83.70;;;;;;4962239;28;20126;-74
2021/05/05 05:35:46;;;;;;;0.90;0.80;;;7.50;83.50;;;;;;4979711;28;20050;-74
2021/05/05 05:38:12;;;;;;;1.23;0.82;;;7.50;83.70;;;;;;4963180;28;20035;-73
2021/05/05 05:40:39;;;;;;;6.43;1.15;;;7.40;83.80;;;;;;4962338;28;20041;-73
2021/05/05 05:43:05;;;;;;;2.45;1.15;;;7.50;85.00;;;;;;4985102;28;20041;-74
2021/05/05 05:45:30;;;;;;;2.72;1.10;;;7.40;84.70;;;;;;4972802;28;20027;-73
2021/05/05 05:47:57;;;;;;;0.93;0.77;;;7.40;85.00;;;;;;4967940;28;20122;-73
2021/05/05 05:50:22;;;;;;;1.15;0.63;;;7.30;84.80;;;;;;4966596;28;20046;-74
2021/05/05 05:52:48;;;;;;;1.33;0.65;;;7.20;83.00;;;;;;4963356;28;20031;-74
2021/05/05 05:55:18;;;;;;;0.70;0.70;;;7.10;83.10;;;;;;4973227;28;20034;-74
2021/05/05 05:57:44;;;;;;;2.13;0.60;;;7.00;84.00;;;;;;4967094;28;20027;-73
2021/05/05 06:00:13;;;;;;;0.80;0.80;;;6.80;81.00;;;;;;4961274;28;20035;-74
2021/05/05 06:02:39;;;;;;;0.77;0.77;;;6.70;82.90;;;;;;4974471;28;20030;-74
2021/05/05 06:05:05;;;;;;;1.48;0.77;;;6.70;83.50;;;;;;4968369;28;20065;-74
2021/05/05 06:07:31;;;;;;;0.70;0.70;;;6.70;85.20;;;;;;4968877;28;20026;-73
2021/05/05 06:09:57;;;;;;;1.50;1.15;;;6.70;84.30;;;;;;4966879;28;20031;-72
2021/05/05 06:12:23;;;;;;;0.70;0.70;;;6.70;85.10;;;;;;4967194;28;20340;-73
2021/05/05 06:14:49;;;;;;;1.90;0.90;;;6.60;85.10;;;;;;4972650;28;20477;-73
2021/05/05 06:17:14;;;;;;;1.67;1.00;;;6.60;86.30;;;;;;4958653;28;20035;-74
2021/05/05 06:19:40;;;;;;;2.47;0.90;;;6.70;86.30;;;;;;4955087;28;20030;-73
2021/05/05 06:22:05;;;;;;;0.70;0.70;;;6.70;85.70;;;;;;4964639;28;20030;-74
2021/05/05 06:24:31;;;;;;;0.85;0.85;;;6.60;85.50;;;;;;4960144;28;20034;-73
2021/05/05 06:26:57;;;;;;;3.25;0.93;;;6.60;85.50;;;;;;4957252;28;20027;-74
2021/05/05 06:29:22;;;;;;;1.05;0.80;;;6.70;86.60;;;;;;4964948;28;20026;-73
2021/05/05 06:31:48;;;;;;;1.38;1.05;;;6.70;85.70;;;;;;4963928;28;20034;-74
2021/05/05 06:34:14;;;;;;;1.10;1.00;;;6.60;86.20;;;;;;4970119;28;20085;-72
2021/05/05 06:36:39;;;;;;;0.90;0.90;;;6.70;86.30;;;;;;4967339;28;20041;-73
2021/05/05 06:39:11;;;;;;;0.75;0.70;;;6.70;87.50;;;;;;4974036;28;20057;-74
2021/05/05 06:41:40;;;;;;;0.73;0.70;;;6.70;86.30;;;;;;4967654;28;20062;-74
2021/05/05 06:44:06;;;;;;;0.82;0.82;;;6.70;85.30;;;;;;4977543;28;20029;-73
2021/05/05 06:46:33;;;;;;;1.05;0.73;;;6.70;85.50;;;;;;4969280;28;20193;-73
2021/05/05 06:48:59;;;;;;;2.05;0.80;;;6.70;85.50;;;;;;4977677;28;20034;-73
2021/05/05 06:51:26;;;;;;;1.60;0.90;;;6.70;85.50;;;;;;4969988;28;20081;-73
2021/05/05 06:53:51;;;;;;;2.22;1.33;;;6.70;84.80;;;;;;4971398;28;20053;-73
2021/05/05 06:56:17;;;;;;;1.55;1.13;;;6.70;86.30;;;;;;4970484;28;20039;-73
2021/05/05 06:58:43;;;;;;;0.60;0.60;;;6.80;87.00;;;;;;4975632;28;20030;-74
2021/05/05 07:01:09;;;;;;;0.80;0.80;;;6.80;86.60;;;;;;4965597;28;20049;-73
2021/05/05 07:03:35;;;;;;;1.02;1.00;;;6.90;86.40;;;;;;4974587;28;20630;-74
2021/05/05 07:06:02;;;;;;;0.80;0.80;;;7.00;87.00;;;;;;4964310;28;20034;-73
2021/05/05 07:08:28;;;;;;;3.30;1.00;;;7.00;87.40;;;;;;4968931;28;20039;-73
2021/05/05 07:10:53;;;;;;;0.70;0.70;;;7.10;88.20;;;;;;4967500;28;20587;-74
2021/05/05 07:13:20;;;;;;;0.60;0.60;;;7.10;86.90;;;;;;4971701;28;20113;-73
2021/05/05 07:15:46;;;;;;;0.82;0.82;;;7.20;88.30;;;;;;4962433;28;20034;-73
2021/05/05 07:18:11;;;;;;;0.80;0.80;;;7.30;87.60;;;;;;4969997;28;20034;-74
2021/05/05 07:20:37;;;;;;;0.60;0.60;;;7.30;88.00;;;;;;4964539;28;20501;-73
2021/05/05 07:23:03;;;;;;;0.65;0.65;;;7.40;87.90;;;;;;4970149;28;20033;-73
2021/05/05 07:25:28;;;;;;;0.60;0.60;;;7.50;87.10;;;;;;4968471;28;20015;-72
2021/05/05 07:27:54;;;;;;;1.52;0.77;;;7.40;84.40;;;;;;4973650;28;20037;-73
2021/05/05 07:30:20;;;;;;;1.10;0.73;;;7.40;84.10;;;;;;4965534;28;20420;-74
2021/05/05 07:32:47;;;;;;;0.73;0.73;;;7.40;84.00;;;;;;4968012;28;20030;-73
2021/05/05 07:35:13;;;;;;;0.65;0.65;;;7.30;84.90;;;;;;4972437;28;20029;-73
2021/05/05 07:48:53;;;;;;;0.88;0.88;;;7.40;86.10;;;;;;4974455;28;20038;-72
2021/05/05 07:51:19;;;;;;;0.80;0.80;;;7.50;87.10;;;;;;4964646;28;20023;-73
2021/05/05 07:53:45;;;;;;;0.90;0.90;;;7.60;86.90;;;;;;4967672;28;20022;-73
2021/05/05 07:56:11;;;;;;;0.70;0.70;;;7.60;85.40;;;;;;4965767;28;22361;-73
2021/05/05 07:58:36;;;;;;;2.17;1.00;;;7.60;84.70;;;;;;4946410;28;20114;-73
2021/05/05 08:01:03;;;;;;;0.98;0.98;;;7.70;85.70;;;;;;4979866;28;20034;-73
2021/05/05 08:03:29;;;;;;;1.30;1.20;;;7.70;85.60;;;;;;4965168;28;20101;-73
2021/05/05 08:05:55;;;;;;;3.65;1.63;;;7.60;84.90;;;;;;4973824;28;20461;-73
2021/05/05 08:08:20;;;;;;;1.10;1.10;;;7.70;85.00;;;;;;4968788;28;20171;-73
2021/05/05 08:10:46;;;;;;;1.98;1.10;;;7.70;82.60;;;;;;4974539;28;20039;-73
2021/05/05 08:13:12;;;;;;;2.33;1.20;;;7.60;82.40;;;;;;4966019;28;20023;-73
2021/05/05 08:15:38;;;;;;;1.45;1.10;;;7.60;82.30;;;;;;4971996;28;20425;-73
2021/05/05 08:18:06;;;;;;;2.85;1.15;;;7.60;84.00;;;;;;4971746;28;20065;-74
2021/05/05 08:20:34;;;;;;;2.05;1.20;;;7.70;83.30;;;;;;4972199;28;20023;-73
2021/05/05 08:23:02;;;;;;;;;;;7.80;83.60;;;;;;4970161;28;20069;-73
2021/05/05 08:25:27;;;;;;;1.10;1.00;;;8.00;84.80;;;;;;4970819;28;19918;-73
2021/05/05 08:27:53;;;;;;;3.45;1.08;;;8.10;81.70;;;;;;4968352;28;20042;-73
2021/05/05 08:30:19;;;;;;;1.40;1.30;;;8.00;81.40;;;;;;4968361;28;20616;-73
2021/05/05 08:32:45;;;;;;;2.05;1.73;;;8.00;81.30;;;;;;4970185;28;20441;-73
2021/05/05 08:35:12;;;;;;;1.27;1.17;;;8.00;80.10;;;;;;4971557;28;20027;-73
2021/05/05 08:37:38;;;;;;;30.80;27.60;;;7.90;78.80;;;;;;4952730;28;20095;-73
2021/05/05 08:40:07;;;;;;;2.38;1.10;;;7.90;80.20;;;;;;4964473;28;20383;-73
2021/05/05 08:42:33;;;;;;;2.47;1.48;;;7.90;80.40;;;;;;4970569;28;20033;-73
2021/05/05 08:44:59;;;;;;;1.38;1.27;;;7.90;80.90;;;;;;4973780;28;20388;-73
2021/05/05 08:47:25;;;;;;;3.03;1.35;;;7.90;80.80;;;;;;4969012;28;20053;-73
2021/05/05 08:49:50;;;;;;;3.35;2.00;;;7.90;78.10;;;;;;4978329;28;20058;-73
2021/05/05 08:52:16;;;;;;;2.22;1.30;;;7.90;79.30;;;;;;4965211;28;20035;-73
2021/05/05 08:54:42;;;;;;;1.98;1.42;;;7.90;81.00;;;;;;4977639;28;20482;-73
2021/05/05 08:57:08;;;;;;;1.13;0.95;;;8.00;80.40;;;;;;4959675;28;20105;-72
2021/05/05 08:59:33;;;;;;;1.55;1.30;;;8.10;80.20;;;;;;4975368;28;20120;-73
2021/05/05 09:02:00;;;;;;;3.72;1.50;;;8.10;80.00;;;;;;4976742;28;20469;-73
2021/05/05 09:04:26;;;;;;;3.05;1.17;;;8.10;77.80;;;;;;4969962;28;20110;-73
2021/05/05 09:06:57;;;;;;;1.27;1.17;;;8.10;80.10;;;;;;4967074;28;20454;-73
2021/05/05 09:09:41;;;;;;;1.63;1.48;;;8.20;80.20;;;;;;4970461;28;20512;-73
2021/05/05 09:12:14;;;;;;;1.70;1.20;;;8.10;77.50;;;;;;4987664;28;20023;-73
2021/05/05 09:14:54;;;;;;;3.55;1.40;;;8.10;80.10;;;;;;4970074;28;20050;-73
2021/05/05 09:17:22;;;;;;;1.35;1.25;;;8.00;78.00;;;;;;4976361;28;20372;-73
2021/05/05 09:19:48;;;;;;;2.25;1.20;;;8.00;79.90;;;;;;4978040;28;20030;-73
2021/05/05 09:22:33;;;;;;;1.50;1.25;;;8.00;79.80;;;;;;4973972;28;20038;-73
2021/05/05 09:24:58;;;;;;;3.75;1.52;;;7.90;81.30;;;;;;4966376;28;20158;-73
2021/05/05 09:27:24;;;;;;;1.88;1.48;;;7.90;82.10;;;;;;4974339;28;20142;-72
2021/05/05 09:29:50;;;;;;;1.83;1.60;;;7.90;82.90;;;;;;4982015;28;20038;-73
2021/05/05 09:32:20;;;;;;;3.05;1.42;;;7.90;82.60;;;;;;4970791;28;20047;-72
2021/05/05 09:35:04;;;;;;;1.17;1.17;;;7.90;84.70;;;;;;4974731;28;20027;-74
2021/05/05 09:37:30;;;;;;;3.55;1.58;;;8.10;85.50;;;;;;4973457;28;20018;-72
2021/05/05 09:40:12;;;;;;;1.80;1.58;;;8.00;79.90;;;;;;4977950;28;20162;-74
2021/05/05 09:42:38;;;;;;;6.30;1.58;;;8.10;80.70;;;;;;4973856;28;20610;-74
2021/05/05 09:45:09;;;;;;;2.55;1.20;;;8.10;79.10;;;;;;4972112;28;20033;-73
2021/05/05 09:47:45;;;;;;;2.08;1.30;;;8.30;78.70;;;;;;4970952;28;20031;-73
2021/05/05 09:50:30;;;;;;;5.00;1.83;;;8.40;81.20;;;;;;4970332;28;20042;-74
2021/05/05 09:53:32;;;;;;;3.15;1.58;;;8.60;78.80;;;;;;4986958;28;20058;-73
2021/05/05 09:55:58;;;;;;;1.58;1.48;;;8.70;79.70;;;;;;4943905;29;20463;-73
2021/05/05 09:58:29;;;;;;;2.17;1.30;;;8.80;76.10;;;;;;4962124;28;20054;-73
2021/05/05 10:01:04;;;;;;;5.45;1.92;;;8.80;72.70;;;;;;4970571;28;20027;-74
2021/05/05 10:03:36;;;;;;;1.77;1.08;;;8.70;75.40;;;;;;4973612;28;20546;-72
2021/05/05 10:06:20;;;;;;;2.00;1.48;;;8.70;73.80;;;;;;4973024;28;20023;-73
2021/05/05 10:08:50;;;;;;;5.55;1.30;;;8.70;73.60;;;;;;4975926;28;20031;-73
2021/05/05 10:11:27;;;;;;;3.03;1.20;;;8.70;73.80;;;;;;4971743;28;20030;-74
2021/05/05 10:13:56;;;;;;;5.32;2.00;;;8.70;75.80;;;;;;4972242;28;20109;-74
2021/05/05 10:16:23;;;;;;;2.45;1.52;;;8.70;72.00;;;;;;4971949;28;20029;-74
2021/05/05 10:18:49;;;;;;;3.38;1.50;;;8.70;70.60;;;;;;4972418;28;20030;-73
2021/05/05 10:21:18;;;;;;;3.53;2.05;;;8.70;71.40;;;;;;4968107;28;20031;-74
2021/05/05 10:23:44;;;;;;;4.43;1.30;;;8.70;68.60;;;;;;4974877;28;20019;-74
2021/05/05 10:26:11;;;;;;;2.45;1.40;;;8.70;70.70;;;;;;4967843;28;20037;-73
2021/05/05 10:28:39;;;;;;;3.08;1.63;;;8.70;70.60;;;;;;4979614;28;20023;-73
2021/05/05 10:31:15;;;;;;;2.73;1.70;;;8.60;68.80;;;;;;4967143;28;20536;-74
2021/05/05 10:33:43;;;;;;;4.28;1.63;;;8.60;72.00;;;;;;4975815;28;20101;-73
2021/05/05 10:36:31;;;;;;;5.47;1.42;;;8.60;69.90;;;;;;4971548;28;20097;-73
2021/05/05 10:38:58;;;;;;;5.45;1.63;;;8.70;69.80;;;;;;4969465;28;20026;-74
2021/05/05 10:41:24;;;;;;;3.28;1.63;;;8.60;69.80;;;;;;4977182;28;20030;-73
2021/05/05 10:43:53;;;;;;;2.75;1.38;;;8.60;73.00;;;;;;4977669;28;20415;-74
2021/05/05 10:46:28;;;;;;;3.92;1.38;;;8.70;74.30;;;;;;4971940;28;20045;-74
2021/05/05 10:49:12;;;;;;;3.17;1.58;;;8.80;73.20;;;;;;4978630;28;20035;-73
2021/05/05 10:51:49;;;;;;;1.50;1.38;;;8.80;73.10;;;;;;4970909;28;20026;-73
2021/05/05 10:54:17;;;;;;;3.40;1.65;;;8.90;73.40;;;;;;4974134;28;20078;-73
2021/05/05 10:57:04;;;;;;;6.53;1.97;;;9.00;71.70;;;;;;4973724;28;20015;-73
2021/05/05 10:59:29;;;;;;;3.40;1.20;;;9.20;70.70;;;;;;4969641;28;20023;-73
2021/05/05 11:01:55;;;;;;;3.20;1.60;;;9.30;69.80;;;;;;4971707;28;20035;-73
2021/05/05 11:04:21;;;;;;;3.22;1.30;;;9.40;67.60;;;;;;4969204;28;20062;-73
2021/05/05 11:06:49;;;;;;;3.97;1.70;;;9.40;67.00;;;;;;4973686;28;20501;-73
2021/05/05 11:09:16;;;;;;;4.90;1.55;;;9.50;69.10;;;;;;4968831;28;20039;-73
2021/05/05 11:11:49;;;;;;;1.58;1.48;;;9.70;68.60;;;;;;4969839;28;20051;-73
2021/05/05 11:14:35;;;;;;;1.98;1.40;;;9.80;67.80;;;;;;4955207;28;20635;-73
2021/05/05 11:17:08;;;;;;;1.88;1.30;;;9.90;70.00;;;;;;4958022;28;20123;-73
2021/05/05 11:19:40;;;;;;;1.58;1.45;;;10.10;68.00;;;;;;4967868;28;20045;-73
2021/05/05 11:22:18;;;;;;;2.38;1.33;;;10.00;66.50;;;;;;4963666;28;20031;-73
2021/05/05 11:24:47;;;;;;;3.35;1.48;;;9.70;63.80;;;;;;4972812;28;20027;-73
2021/05/05 11:27:17;;;;;;;2.00;1.20;;;9.70;64.80;;;;;;4972910;28;20371;-73
2021/05/05 11:29:50;;;;;;;2.60;1.48;;;9.70;62.60;;;;;;4969749;28;20081;-74
2021/05/05 11:32:26;;;;;;;1.45;1.27;;;9.70;65.60;;;;;;4960007;28;20509;-73
2021/05/05 11:34:52;;;;;;;1.88;1.15;;;9.90;64.30;;;;;;4967638;28;20037;-73
2021/05/05 11:37:20;;;;;;;2.55;1.30;;;9.90;61.40;;;;;;4965433;28;20466;-73
2021/05/05 11:39:50;;;;;;;2.17;1.25;;;10.10;62.50;;;;;;4970809;28;20078;-73
2021/05/05 11:42:19;;;;;;;4.13;1.58;;;10.30;65.20;;;;;;4966119;28;20097;-73
2021/05/05 11:44:49;;;;;;;3.63;1.50;;;10.30;68.30;;;;;;4969424;28;20114;-73
2021/05/05 11:47:25;;;;;;;2.08;1.38;;;10.50;66.40;;;;;;4965956;28;20437;-74
2021/05/05 11:49:57;;;;;;;2.25;1.38;;;10.60;67.60;;;;;;4976949;28;20023;-73
2021/05/05 11:52:38;;;;;;;3.13;1.48;;;10.70;65.60;;;;;;4966681;28;20046;-73
2021/05/05 11:55:09;;;;;;;1.90;1.50;;;10.60;64.80;;;;;;4965605;28;20490;-73
2021/05/05 11:57:44;;;;;;;1.60;1.50;;;10.70;64.60;;;;;;4963997;28;20105;-73
2021/05/05 12:00:16;;;;;;;3.88;1.80;;;10.70;66.20;;;;;;4966122;28;20372;-73
2021/05/05 12:02:47;;;;;;;5.20;1.52;;;10.80;68.40;;;;;;4966137;28;20031;-74
2021/05/05 12:05:32;;;;;;;3.45;1.23;;;11.00;65.30;;;;;;4972626;28;20011;-74
2021/05/05 12:08:15;;;;;;;3.33;1.67;;;11.00;67.30;;;;;;4973448;28;20128;-74
2021/05/05 12:10:48;;;;;;;1.77;1.40;;;11.20;65.40;;;;;;4971483;28;20086;-74
2021/05/05 12:13:14;;;;;;;3.10;1.45;;;11.20;67.90;;;;;;4966850;28;20093;-74
2021/05/05 12:15:48;;;;;;;1.52;1.42;;;11.30;65.60;;;;;;4971410;28;20585;-74
2021/05/05 12:18:14;;;;;;;2.40;1.40;;;11.20;66.00;;;;;;4976654;28;20044;-74
2021/05/05 12:20:40;;;;;;;2.10;1.50;;;11.20;62.20;;;;;;4967229;28;20015;-73
2021/05/05 12:23:06;;;;;;;3.55;1.40;;;11.30;61.50;;;;;;4967256;28;20097;-74
2021/05/05 12:25:32;;;;;;;3.95;1.30;;;11.20;62.60;;;;;;4974444;28;20094;-74
2021/05/05 12:28:18;;;;;;;1.77;1.33;;;11.20;61.50;;;;;;4971595;28;20018;-74
2021/05/05 12:30:48;;;;;;;3.95;1.50;;;11.10;59.70;;;;;;4971314;28;20556;-73
2021/05/05 12:33:18;;;;;;;2.92;1.33;;;11.00;59.10;;;;;;4971565;28;20158;-73
2021/05/05 12:35:44;;;;;;;2.08;1.30;;;11.10;63.00;;;;;;4983777;28;20041;-74
2021/05/05 12:38:18;;;;;;;3.05;1.30;;;11.10;59.40;;;;;;4972326;28;20042;-74
2021/05/05 12:40:45;;;;;;;2.63;1.40;;;11.30;61.40;;;;;;4978912;28;20023;-74
2021/05/05 12:43:17;;;;;;;3.83;1.40;;;11.50;57.10;;;;;;4972134;28;20023;-74
2021/05/05 12:45:44;;;;;;;1.20;1.05;;;11.70;58.60;;;;;;4968749;28;20068;-73
2021/05/05 12:48:10;;;;;;;2.30;1.38;;;11.70;51.40;;;;;;4968223;28;20386;-73
2021/05/05 12:50:41;;;;;;;2.53;1.05;;;11.70;50.10;;;;;;4978852;28;20034;-74
2021/05/05 12:53:08;;;;;;;1.85;1.08;;;11.50;48.70;;;;;;4972842;28;20850;-74
2021/05/05 12:55:37;;;;;;;3.78;0.93;;;11.50;50.00;;;;;;4978949;28;20042;-73
2021/05/05 12:58:08;;;;;;;1.33;1.00;;;11.50;49.70;;;;;;4973997;28;20043;-73
2021/05/05 13:00:39;;;;;;;3.10;1.20;;;11.50;51.20;;;;;;4976134;28;20106;-73
2021/05/05 13:03:10;;;;;;;4.97;1.60;;;11.30;49.50;;;;;;4966865;28;20039;-73
2021/05/05 13:05:59;;;;;;;1.23;1.10;;;10.90;46.30;;;;;;4972193;28;20042;-74
2021/05/05 13:08:41;;;;;;;2.00;1.05;;;10.80;49.90;;;;;;4971323;28;20042;-73
2021/05/05 13:11:09;;;;;;;2.75;0.80;;;10.60;50.00;;;;;;4977183;28;20503;-74